sensor_id;sensor_type;location;lat;lon;timestamp;P1;durP1;ratioP1;P2;durP2;ratioP2
32250;SDS011;41295;48.518;9.206;2023-01-23T00:01:25;31.13;;;18.67;;
32250;SDS011;41295;48.518;9.206;2023-01-23T00:03:29;32.13;;;17.70;;
32250;SDS011;41295;48.518;9.206;2023-01-23T00:05:32;34.45;;;18.60;;
32250;SDS011;41295;48.518;9.206;2023-01-23T00:07:34;32.10;;;17.77;;
32250;SDS011;41295;48.518;9.206;2023-01-23T00:09:37;33.78;;;19.85;;
32250;SDS011;41295;48.518;9.206;2023-01-23T00:11:41;32.47;;;18.58;;
32250;SDS011;41295;48.518;9.206;2023-01-23T00:13:44;30.33;;;17.60;;
32250;SDS011;41295;48.518;9.206;2023-01-23T00:15:47;32.95;;;18.15;;
32250;SDS011;41295;48.518;9.206;2023-01-23T00:17:49;35.85;;;18.90;;
32250;SDS011;41295;48.518;9.206;2023-01-23T00:19:52;33.72;;;19.35;;
32250;SDS011;41295;48.518;9.206;2023-01-23T00:21:57;34.25;;;20.02;;
32250;SDS011;41295;48.518;9.206;2023-01-23T00:24:00;33.92;;;18.38;;
32250;SDS011;41295;48.518;9.206;2023-01-23T00:26:03;31.58;;;18.67;;
32250;SDS011;41295;48.518;9.206;2023-01-23T00:28:08;31.80;;;18.35;;
32250;SDS011;41295;48.518;9.206;2023-01-23T00:30:10;31.75;;;18.30;;
32250;SDS011;41295;48.518;9.206;2023-01-23T00:32:14;35.83;;;18.73;;
32250;SDS011;41295;48.518;9.206;2023-01-23T00:34:16;31.75;;;19.15;;
32250;SDS011;41295;48.518;9.206;2023-01-23T00:36:19;34.35;;;18.75;;
32250;SDS011;41295;48.518;9.206;2023-01-23T00:38:21;33.60;;;19.63;;
32250;SDS011;41295;48.518;9.206;2023-01-23T00:40:24;29.98;;;17.10;;
32250;SDS011;41295;48.518;9.206;2023-01-23T00:42:27;36.83;;;19.40;;
32250;SDS011;41295;48.518;9.206;2023-01-23T00:44:31;32.80;;;19.05;;
32250;SDS011;41295;48.518;9.206;2023-01-23T00:46:35;31.77;;;18.92;;
32250;SDS011;41295;48.518;9.206;2023-01-23T00:48:38;33.55;;;19.60;;
32250;SDS011;41295;48.518;9.206;2023-01-23T00:50:40;33.47;;;18.27;;
32250;SDS011;41295;48.518;9.206;2023-01-23T00:52:44;31.73;;;18.83;;
32250;SDS011;41295;48.518;9.206;2023-01-23T00:54:47;36.25;;;20.45;;
32250;SDS011;41295;48.518;9.206;2023-01-23T00:56:50;30.83;;;17.45;;
32250;SDS011;41295;48.518;9.206;2023-01-23T00:58:53;34.85;;;20.05;;
32250;SDS011;41295;48.518;9.206;2023-01-23T01:00:57;34.92;;;19.75;;
32250;SDS011;41295;48.518;9.206;2023-01-23T01:03:00;33.67;;;18.80;;
32250;SDS011;41295;48.518;9.206;2023-01-23T01:05:02;35.10;;;19.15;;
32250;SDS011;41295;48.518;9.206;2023-01-23T01:07:05;33.50;;;18.98;;
32250;SDS011;41295;48.518;9.206;2023-01-23T01:09:08;36.80;;;19.67;;
32250;SDS011;41295;48.518;9.206;2023-01-23T01:11:10;34.15;;;19.40;;
32250;SDS011;41295;48.518;9.206;2023-01-23T01:13:13;30.35;;;18.48;;
32250;SDS011;41295;48.518;9.206;2023-01-23T01:15:19;36.08;;;18.95;;
32250;SDS011;41295;48.518;9.206;2023-01-23T01:17:23;31.23;;;18.30;;
32250;SDS011;41295;48.518;9.206;2023-01-23T01:19:26;34.00;;;18.95;;
32250;SDS011;41295;48.518;9.206;2023-01-23T01:21:29;32.70;;;18.35;;
32250;SDS011;41295;48.518;9.206;2023-01-23T01:23:32;33.15;;;18.45;;
32250;SDS011;41295;48.518;9.206;2023-01-23T01:25:34;33.80;;;19.48;;
32250;SDS011;41295;48.518;9.206;2023-01-23T01:27:37;30.17;;;18.13;;
32250;SDS011;41295;48.518;9.206;2023-01-23T01:29:40;32.63;;;18.35;;
32250;SDS011;41295;48.518;9.206;2023-01-23T01:31:43;35.05;;;18.95;;
32250;SDS011;41295;48.518;9.206;2023-01-23T01:33:47;36.20;;;20.10;;
32250;SDS011;41295;48.518;9.206;2023-01-23T01:35:50;35.25;;;19.77;;
32250;SDS011;41295;48.518;9.206;2023-01-23T01:37:53;35.72;;;20.75;;
32250;SDS011;41295;48.518;9.206;2023-01-23T01:39:56;35.10;;;19.48;;
32250;SDS011;41295;48.518;9.206;2023-01-23T01:41:58;36.33;;;20.83;;
32250;SDS011;41295;48.518;9.206;2023-01-23T01:44:01;35.75;;;19.50;;
32250;SDS011;41295;48.518;9.206;2023-01-23T01:46:12;35.15;;;19.33;;
32250;SDS011;41295;48.518;9.206;2023-01-23T01:48:20;33.40;;;18.80;;
32250;SDS011;41295;48.518;9.206;2023-01-23T01:50:27;35.42;;;19.60;;
32250;SDS011;41295;48.518;9.206;2023-01-23T01:52:29;32.88;;;19.20;;
32250;SDS011;41295;48.518;9.206;2023-01-23T01:54:34;32.63;;;19.33;;
32250;SDS011;41295;48.518;9.206;2023-01-23T01:56:43;35.95;;;20.00;;
32250;SDS011;41295;48.518;9.206;2023-01-23T01:58:52;35.38;;;19.80;;
32250;SDS011;41295;48.518;9.206;2023-01-23T02:00:55;33.83;;;19.65;;
32250;SDS011;41295;48.518;9.206;2023-01-23T02:02:58;38.63;;;19.48;;
32250;SDS011;41295;48.518;9.206;2023-01-23T02:05:04;34.13;;;19.20;;
32250;SDS011;41295;48.518;9.206;2023-01-23T02:07:14;33.40;;;19.00;;
32250;SDS011;41295;48.518;9.206;2023-01-23T02:09:23;34.80;;;19.77;;
32250;SDS011;41295;48.518;9.206;2023-01-23T02:11:27;33.03;;;19.75;;
32250;SDS011;41295;48.518;9.206;2023-01-23T02:13:31;34.60;;;19.52;;
32250;SDS011;41295;48.518;9.206;2023-01-23T02:15:36;38.28;;;20.83;;
32250;SDS011;41295;48.518;9.206;2023-01-23T02:17:40;36.92;;;20.02;;
32250;SDS011;41295;48.518;9.206;2023-01-23T02:19:47;32.53;;;18.98;;
32250;SDS011;41295;48.518;9.206;2023-01-23T02:21:59;33.08;;;18.50;;
32250;SDS011;41295;48.518;9.206;2023-01-23T02:24:13;35.45;;;20.70;;
32250;SDS011;41295;48.518;9.206;2023-01-23T02:26:23;38.72;;;20.13;;
32250;SDS011;41295;48.518;9.206;2023-01-23T02:28:35;33.08;;;18.77;;
32250;SDS011;41295;48.518;9.206;2023-01-23T02:30:40;33.00;;;19.27;;
32250;SDS011;41295;48.518;9.206;2023-01-23T02:32:46;30.25;;;17.90;;
32250;SDS011;41295;48.518;9.206;2023-01-23T02:34:50;37.88;;;19.90;;
32250;SDS011;41295;48.518;9.206;2023-01-23T02:36:54;35.35;;;19.45;;
32250;SDS011;41295;48.518;9.206;2023-01-23T02:38:59;41.30;;;20.98;;
32250;SDS011;41295;48.518;9.206;2023-01-23T02:41:06;35.15;;;19.25;;
32250;SDS011;41295;48.518;9.206;2023-01-23T02:43:14;36.53;;;18.50;;
32250;SDS011;41295;48.518;9.206;2023-01-23T02:45:19;34.88;;;19.80;;
32250;SDS011;41295;48.518;9.206;2023-01-23T02:47:22;33.78;;;18.77;;
32250;SDS011;41295;48.518;9.206;2023-01-23T02:49:25;35.55;;;18.77;;
32250;SDS011;41295;48.518;9.206;2023-01-23T02:51:29;30.60;;;18.17;;
32250;SDS011;41295;48.518;9.206;2023-01-23T02:53:32;33.65;;;18.35;;
32250;SDS011;41295;48.518;9.206;2023-01-23T02:55:35;35.08;;;20.00;;
32250;SDS011;41295;48.518;9.206;2023-01-23T02:57:39;37.25;;;19.40;;
32250;SDS011;41295;48.518;9.206;2023-01-23T02:59:43;36.10;;;19.08;;
32250;SDS011;41295;48.518;9.206;2023-01-23T03:02:03;33.97;;;18.88;;
32250;SDS011;41295;48.518;9.206;2023-01-23T03:04:06;38.00;;;19.20;;
32250;SDS011;41295;48.518;9.206;2023-01-23T03:06:09;34.90;;;19.23;;
32250;SDS011;41295;48.518;9.206;2023-01-23T03:08:12;35.13;;;19.63;;
32250;SDS011;41295;48.518;9.206;2023-01-23T03:10:18;33.13;;;20.17;;
32250;SDS011;41295;48.518;9.206;2023-01-23T03:12:24;34.63;;;18.88;;
32250;SDS011;41295;48.518;9.206;2023-01-23T03:14:26;32.92;;;19.33;;
32250;SDS011;41295;48.518;9.206;2023-01-23T03:16:31;31.83;;;18.65;;
32250;SDS011;41295;48.518;9.206;2023-01-23T03:18:38;33.85;;;19.20;;
32250;SDS011;41295;48.518;9.206;2023-01-23T03:20:54;33.47;;;18.75;;
32250;SDS011;41295;48.518;9.206;2023-01-23T03:22:57;35.90;;;19.23;;
32250;SDS011;41295;48.518;9.206;2023-01-23T03:25:00;35.53;;;20.08;;
32250;SDS011;41295;48.518;9.206;2023-01-23T03:27:02;33.50;;;18.63;;
32250;SDS011;41295;48.518;9.206;2023-01-23T03:29:05;33.92;;;18.30;;
32250;SDS011;41295;48.518;9.206;2023-01-23T03:31:25;33.60;;;17.65;;
32250;SDS011;41295;48.518;9.206;2023-01-23T03:33:29;32.35;;;17.85;;
32250;SDS011;41295;48.518;9.206;2023-01-23T03:35:32;31.85;;;16.92;;
32250;SDS011;41295;48.518;9.206;2023-01-23T03:37:34;34.22;;;18.60;;
32250;SDS011;41295;48.518;9.206;2023-01-23T03:39:37;30.95;;;17.60;;
32250;SDS011;41295;48.518;9.206;2023-01-23T03:41:57;32.67;;;18.58;;
32250;SDS011;41295;48.518;9.206;2023-01-23T03:43:59;33.05;;;17.63;;
32250;SDS011;41295;48.518;9.206;2023-01-23T03:46:02;32.25;;;18.08;;
32250;SDS011;41295;48.518;9.206;2023-01-23T03:48:05;34.55;;;17.85;;
32250;SDS011;41295;48.518;9.206;2023-01-23T03:50:09;32.28;;;17.75;;
32250;SDS011;41295;48.518;9.206;2023-01-23T03:52:12;31.75;;;17.15;;
32250;SDS011;41295;48.518;9.206;2023-01-23T03:54:14;32.08;;;18.08;;
32250;SDS011;41295;48.518;9.206;2023-01-23T03:56:17;35.38;;;18.17;;
32250;SDS011;41295;48.518;9.206;2023-01-23T03:58:20;34.42;;;18.58;;
32250;SDS011;41295;48.518;9.206;2023-01-23T04:00:23;33.58;;;18.00;;
32250;SDS011;41295;48.518;9.206;2023-01-23T04:02:25;29.13;;;16.73;;
32250;SDS011;41295;48.518;9.206;2023-01-23T04:04:29;31.95;;;17.80;;
32250;SDS011;41295;48.518;9.206;2023-01-23T04:06:33;36.55;;;19.05;;
32250;SDS011;41295;48.518;9.206;2023-01-23T04:08:36;31.65;;;18.02;;
32250;SDS011;41295;48.518;9.206;2023-01-23T04:10:38;32.35;;;19.10;;
32250;SDS011;41295;48.518;9.206;2023-01-23T04:12:41;33.33;;;18.83;;
32250;SDS011;41295;48.518;9.206;2023-01-23T04:14:44;33.55;;;18.20;;
32250;SDS011;41295;48.518;9.206;2023-01-23T04:16:46;35.03;;;18.65;;
32250;SDS011;41295;48.518;9.206;2023-01-23T04:18:49;35.47;;;18.80;;
32250;SDS011;41295;48.518;9.206;2023-01-23T04:20:52;32.30;;;18.00;;
32250;SDS011;41295;48.518;9.206;2023-01-23T04:22:56;32.55;;;17.75;;
32250;SDS011;41295;48.518;9.206;2023-01-23T04:24:59;32.53;;;18.40;;
32250;SDS011;41295;48.518;9.206;2023-01-23T04:27:01;31.08;;;17.17;;
32250;SDS011;41295;48.518;9.206;2023-01-23T04:29:04;34.45;;;18.42;;
32250;SDS011;41295;48.518;9.206;2023-01-23T04:31:07;35.70;;;18.50;;
32250;SDS011;41295;48.518;9.206;2023-01-23T04:33:10;32.45;;;18.20;;
32250;SDS011;41295;48.518;9.206;2023-01-23T04:35:13;32.85;;;18.40;;
32250;SDS011;41295;48.518;9.206;2023-01-23T04:37:15;36.38;;;19.08;;
32250;SDS011;41295;48.518;9.206;2023-01-23T04:39:20;35.88;;;18.75;;
32250;SDS011;41295;48.518;9.206;2023-01-23T04:41:23;32.92;;;18.65;;
32250;SDS011;41295;48.518;9.206;2023-01-23T04:43:28;33.55;;;18.35;;
32250;SDS011;41295;48.518;9.206;2023-01-23T04:45:30;34.95;;;18.73;;
32250;SDS011;41295;48.518;9.206;2023-01-23T04:47:33;35.60;;;18.95;;
32250;SDS011;41295;48.518;9.206;2023-01-23T04:49:36;37.35;;;19.02;;
32250;SDS011;41295;48.518;9.206;2023-01-23T04:51:38;33.92;;;19.00;;
32250;SDS011;41295;48.518;9.206;2023-01-23T04:53:41;38.88;;;20.17;;
32250;SDS011;41295;48.518;9.206;2023-01-23T04:55:46;35.55;;;19.33;;
32250;SDS011;41295;48.518;9.206;2023-01-23T04:57:50;35.70;;;19.67;;
32250;SDS011;41295;48.518;9.206;2023-01-23T04:59:52;35.67;;;19.60;;
32250;SDS011;41295;48.518;9.206;2023-01-23T05:01:55;33.50;;;18.92;;
32250;SDS011;41295;48.518;9.206;2023-01-23T05:03:57;34.50;;;18.20;;
32250;SDS011;41295;48.518;9.206;2023-01-23T05:06:00;32.80;;;18.70;;
32250;SDS011;41295;48.518;9.206;2023-01-23T05:08:03;30.83;;;17.67;;
32250;SDS011;41295;48.518;9.206;2023-01-23T05:10:09;33.80;;;18.73;;
32250;SDS011;41295;48.518;9.206;2023-01-23T05:12:13;33.97;;;18.52;;
32250;SDS011;41295;48.518;9.206;2023-01-23T05:14:16;37.35;;;20.58;;
32250;SDS011;41295;48.518;9.206;2023-01-23T05:16:19;32.97;;;18.38;;
32250;SDS011;41295;48.518;9.206;2023-01-23T05:18:21;32.70;;;18.75;;
32250;SDS011;41295;48.518;9.206;2023-01-23T05:20:24;33.95;;;18.30;;
32250;SDS011;41295;48.518;9.206;2023-01-23T05:22:27;30.50;;;17.50;;
32250;SDS011;41295;48.518;9.206;2023-01-23T05:24:29;36.88;;;19.00;;
32250;SDS011;41295;48.518;9.206;2023-01-23T05:26:32;32.80;;;18.63;;
32250;SDS011;41295;48.518;9.206;2023-01-23T05:28:37;34.03;;;19.25;;
32250;SDS011;41295;48.518;9.206;2023-01-23T05:30:39;34.85;;;18.60;;
32250;SDS011;41295;48.518;9.206;2023-01-23T05:32:42;34.00;;;18.10;;
32250;SDS011;41295;48.518;9.206;2023-01-23T05:34:45;36.83;;;18.20;;
32250;SDS011;41295;48.518;9.206;2023-01-23T05:36:47;32.95;;;17.75;;
32250;SDS011;41295;48.518;9.206;2023-01-23T05:38:50;31.02;;;17.48;;
32250;SDS011;41295;48.518;9.206;2023-01-23T05:40:52;35.40;;;18.08;;
32250;SDS011;41295;48.518;9.206;2023-01-23T05:42:55;32.65;;;18.10;;
32250;SDS011;41295;48.518;9.206;2023-01-23T05:44:59;32.70;;;18.27;;
32250;SDS011;41295;48.518;9.206;2023-01-23T05:47:02;34.33;;;18.10;;
32250;SDS011;41295;48.518;9.206;2023-01-23T05:49:05;37.35;;;18.90;;
32250;SDS011;41295;48.518;9.206;2023-01-23T05:51:07;31.95;;;17.75;;
32250;SDS011;41295;48.518;9.206;2023-01-23T05:53:11;34.00;;;18.60;;
32250;SDS011;41295;48.518;9.206;2023-01-23T05:55:13;34.20;;;18.50;;
32250;SDS011;41295;48.518;9.206;2023-01-23T05:57:16;32.28;;;18.40;;
32250;SDS011;41295;48.518;9.206;2023-01-23T05:59:19;33.17;;;18.40;;
32250;SDS011;41295;48.518;9.206;2023-01-23T06:01:26;32.38;;;17.52;;
32250;SDS011;41295;48.518;9.206;2023-01-23T06:03:28;34.95;;;17.27;;
32250;SDS011;41295;48.518;9.206;2023-01-23T06:05:31;38.63;;;18.02;;
32250;SDS011;41295;48.518;9.206;2023-01-23T06:07:33;35.85;;;18.65;;
32250;SDS011;41295;48.518;9.206;2023-01-23T06:09:37;37.92;;;18.75;;
32250;SDS011;41295;48.518;9.206;2023-01-23T06:11:40;35.30;;;18.55;;
32250;SDS011;41295;48.518;9.206;2023-01-23T06:13:42;36.88;;;18.33;;
32250;SDS011;41295;48.518;9.206;2023-01-23T06:15:45;34.72;;;17.95;;
32250;SDS011;41295;48.518;9.206;2023-01-23T06:17:49;35.20;;;18.20;;
32250;SDS011;41295;48.518;9.206;2023-01-23T06:19:52;37.70;;;19.15;;
32250;SDS011;41295;48.518;9.206;2023-01-23T06:21:54;32.05;;;18.60;;
32250;SDS011;41295;48.518;9.206;2023-01-23T06:23:57;39.85;;;18.35;;
32250;SDS011;41295;48.518;9.206;2023-01-23T06:26:00;40.13;;;19.65;;
32250;SDS011;41295;48.518;9.206;2023-01-23T06:28:03;38.20;;;19.98;;
32250;SDS011;41295;48.518;9.206;2023-01-23T06:30:07;35.92;;;18.73;;
32250;SDS011;41295;48.518;9.206;2023-01-23T06:32:10;34.17;;;19.33;;
32250;SDS011;41295;48.518;9.206;2023-01-23T06:34:14;35.80;;;17.85;;
32250;SDS011;41295;48.518;9.206;2023-01-23T06:36:16;36.90;;;19.05;;
32250;SDS011;41295;48.518;9.206;2023-01-23T06:38:19;33.45;;;17.40;;
32250;SDS011;41295;48.518;9.206;2023-01-23T06:40:21;37.03;;;19.38;;
32250;SDS011;41295;48.518;9.206;2023-01-23T06:42:24;37.35;;;20.27;;
32250;SDS011;41295;48.518;9.206;2023-01-23T06:44:27;35.35;;;18.45;;
32250;SDS011;41295;48.518;9.206;2023-01-23T06:46:29;34.72;;;17.88;;
32250;SDS011;41295;48.518;9.206;2023-01-23T06:48:32;35.50;;;18.30;;
32250;SDS011;41295;48.518;9.206;2023-01-23T06:50:36;37.30;;;18.58;;
32250;SDS011;41295;48.518;9.206;2023-01-23T06:52:39;32.58;;;17.45;;
32250;SDS011;41295;48.518;9.206;2023-01-23T06:54:42;34.78;;;17.88;;
32250;SDS011;41295;48.518;9.206;2023-01-23T06:56:44;36.30;;;17.83;;
32250;SDS011;41295;48.518;9.206;2023-01-23T06:58:47;34.08;;;18.75;;
32250;SDS011;41295;48.518;9.206;2023-01-23T07:00:50;35.03;;;18.38;;
32250;SDS011;41295;48.518;9.206;2023-01-23T07:02:52;33.70;;;18.35;;
32250;SDS011;41295;48.518;9.206;2023-01-23T07:04:58;36.30;;;18.85;;
32250;SDS011;41295;48.518;9.206;2023-01-23T07:07:03;34.78;;;18.40;;
32250;SDS011;41295;48.518;9.206;2023-01-23T07:09:05;34.42;;;18.08;;
32250;SDS011;41295;48.518;9.206;2023-01-23T07:11:08;40.72;;;19.60;;
32250;SDS011;41295;48.518;9.206;2023-01-23T07:13:11;34.45;;;18.45;;
32250;SDS011;41295;48.518;9.206;2023-01-23T07:15:13;38.25;;;19.67;;
32250;SDS011;41295;48.518;9.206;2023-01-23T07:17:16;37.38;;;19.30;;
32250;SDS011;41295;48.518;9.206;2023-01-23T07:19:18;39.75;;;19.77;;
32250;SDS011;41295;48.518;9.206;2023-01-23T07:21:21;36.28;;;18.25;;
32250;SDS011;41295;48.518;9.206;2023-01-23T07:23:25;38.85;;;18.55;;
32250;SDS011;41295;48.518;9.206;2023-01-23T07:25:27;36.60;;;18.77;;
32250;SDS011;41295;48.518;9.206;2023-01-23T07:27:30;34.60;;;17.67;;
32250;SDS011;41295;48.518;9.206;2023-01-23T07:29:33;37.70;;;19.35;;
32250;SDS011;41295;48.518;9.206;2023-01-23T07:31:36;33.88;;;16.92;;
32250;SDS011;41295;48.518;9.206;2023-01-23T07:33:39;37.58;;;18.33;;
32250;SDS011;41295;48.518;9.206;2023-01-23T07:35:41;37.63;;;18.17;;
32250;SDS011;41295;48.518;9.206;2023-01-23T07:37:44;36.35;;;18.73;;
32250;SDS011;41295;48.518;9.206;2023-01-23T07:39:48;36.25;;;18.48;;
32250;SDS011;41295;48.518;9.206;2023-01-23T07:41:51;34.47;;;18.63;;
32250;SDS011;41295;48.518;9.206;2023-01-23T07:43:53;37.63;;;18.83;;
32250;SDS011;41295;48.518;9.206;2023-01-23T07:45:57;34.38;;;17.50;;
32250;SDS011;41295;48.518;9.206;2023-01-23T07:48:00;34.28;;;17.67;;
32250;SDS011;41295;48.518;9.206;2023-01-23T07:50:02;32.88;;;17.00;;
32250;SDS011;41295;48.518;9.206;2023-01-23T07:52:05;32.42;;;16.90;;
32250;SDS011;41295;48.518;9.206;2023-01-23T07:54:08;36.97;;;18.23;;
32250;SDS011;41295;48.518;9.206;2023-01-23T07:56:12;35.30;;;17.85;;
32250;SDS011;41295;48.518;9.206;2023-01-23T07:58:15;35.80;;;17.27;;
32250;SDS011;41295;48.518;9.206;2023-01-23T08:00:18;37.00;;;17.88;;
32250;SDS011;41295;48.518;9.206;2023-01-23T08:02:24;37.63;;;18.15;;
32250;SDS011;41295;48.518;9.206;2023-01-23T08:04:27;33.72;;;16.50;;
32250;SDS011;41295;48.518;9.206;2023-01-23T08:06:29;31.13;;;16.38;;
32250;SDS011;41295;48.518;9.206;2023-01-23T08:08:32;35.38;;;17.80;;
32250;SDS011;41295;48.518;9.206;2023-01-23T08:10:35;32.28;;;17.05;;
32250;SDS011;41295;48.518;9.206;2023-01-23T08:12:38;36.05;;;17.13;;
32250;SDS011;41295;48.518;9.206;2023-01-23T08:14:41;38.08;;;18.45;;
32250;SDS011;41295;48.518;9.206;2023-01-23T08:16:46;39.08;;;17.45;;
32250;SDS011;41295;48.518;9.206;2023-01-23T08:18:49;34.33;;;16.60;;
32250;SDS011;41295;48.518;9.206;2023-01-23T08:20:53;36.10;;;17.85;;
32250;SDS011;41295;48.518;9.206;2023-01-23T08:22:55;36.22;;;18.02;;
32250;SDS011;41295;48.518;9.206;2023-01-23T08:25:00;34.08;;;16.77;;
32250;SDS011;41295;48.518;9.206;2023-01-23T08:27:03;39.63;;;17.90;;
32250;SDS011;41295;48.518;9.206;2023-01-23T08:29:07;34.03;;;16.60;;
32250;SDS011;41295;48.518;9.206;2023-01-23T08:31:11;33.50;;;16.80;;
32250;SDS011;41295;48.518;9.206;2023-01-23T08:33:15;34.60;;;17.30;;
32250;SDS011;41295;48.518;9.206;2023-01-23T08:35:17;37.25;;;17.02;;
32250;SDS011;41295;48.518;9.206;2023-01-23T08:37:20;34.83;;;17.10;;
32250;SDS011;41295;48.518;9.206;2023-01-23T08:39:23;34.38;;;17.42;;
32250;SDS011;41295;48.518;9.206;2023-01-23T08:41:25;35.25;;;17.00;;
32250;SDS011;41295;48.518;9.206;2023-01-23T08:43:28;33.65;;;17.35;;
32250;SDS011;41295;48.518;9.206;2023-01-23T08:45:32;34.13;;;16.77;;
32250;SDS011;41295;48.518;9.206;2023-01-23T08:47:35;34.65;;;16.95;;
32250;SDS011;41295;48.518;9.206;2023-01-23T08:49:38;36.85;;;18.48;;
32250;SDS011;41295;48.518;9.206;2023-01-23T08:51:41;36.58;;;17.25;;
32250;SDS011;41295;48.518;9.206;2023-01-23T08:53:43;34.97;;;17.88;;
32250;SDS011;41295;48.518;9.206;2023-01-23T08:55:46;38.13;;;16.85;;
32250;SDS011;41295;48.518;9.206;2023-01-23T08:57:48;33.78;;;17.20;;
32250;SDS011;41295;48.518;9.206;2023-01-23T08:59:51;38.28;;;18.65;;
32250;SDS011;41295;48.518;9.206;2023-01-23T09:01:55;36.75;;;18.17;;
32250;SDS011;41295;48.518;9.206;2023-01-23T09:03:58;32.50;;;16.48;;
32250;SDS011;41295;48.518;9.206;2023-01-23T09:06:00;34.65;;;17.58;;
32250;SDS011;41295;48.518;9.206;2023-01-23T09:08:03;35.83;;;17.83;;
32250;SDS011;41295;48.518;9.206;2023-01-23T09:10:06;36.90;;;17.63;;
32250;SDS011;41295;48.518;9.206;2023-01-23T09:12:10;33.90;;;17.75;;
32250;SDS011;41295;48.518;9.206;2023-01-23T09:14:13;36.03;;;17.35;;
32250;SDS011;41295;48.518;9.206;2023-01-23T09:16:16;35.78;;;17.25;;
32250;SDS011;41295;48.518;9.206;2023-01-23T09:18:20;36.53;;;17.73;;
32250;SDS011;41295;48.518;9.206;2023-01-23T09:20:25;34.55;;;17.23;;
32250;SDS011;41295;48.518;9.206;2023-01-23T09:22:29;34.92;;;18.23;;
32250;SDS011;41295;48.518;9.206;2023-01-23T09:24:31;36.25;;;18.05;;
32250;SDS011;41295;48.518;9.206;2023-01-23T09:26:34;34.78;;;17.00;;
32250;SDS011;41295;48.518;9.206;2023-01-23T09:28:38;36.20;;;17.75;;
32250;SDS011;41295;48.518;9.206;2023-01-23T09:30:43;35.15;;;17.02;;
32250;SDS011;41295;48.518;9.206;2023-01-23T09:32:45;35.63;;;17.52;;
32250;SDS011;41295;48.518;9.206;2023-01-23T09:34:50;34.20;;;17.83;;
32250;SDS011;41295;48.518;9.206;2023-01-23T09:36:55;36.95;;;18.25;;
32250;SDS011;41295;48.518;9.206;2023-01-23T09:38:57;38.15;;;17.00;;
32250;SDS011;41295;48.518;9.206;2023-01-23T09:41:06;35.28;;;17.52;;
32250;SDS011;41295;48.518;9.206;2023-01-23T09:43:15;36.95;;;17.73;;
32250;SDS011;41295;48.518;9.206;2023-01-23T09:45:20;33.55;;;16.88;;
32250;SDS011;41295;48.518;9.206;2023-01-23T09:47:27;36.45;;;18.83;;
32250;SDS011;41295;48.518;9.206;2023-01-23T09:49:37;40.50;;;19.10;;
32250;SDS011;41295;48.518;9.206;2023-01-23T09:51:48;43.22;;;18.90;;
32250;SDS011;41295;48.518;9.206;2023-01-23T09:53:58;40.30;;;18.55;;
32250;SDS011;41295;48.518;9.206;2023-01-23T09:56:11;35.65;;;17.48;;
32250;SDS011;41295;48.518;9.206;2023-01-23T09:58:30;39.28;;;18.92;;
32250;SDS011;41295;48.518;9.206;2023-01-23T10:00:38;37.78;;;18.20;;
32250;SDS011;41295;48.518;9.206;2023-01-23T10:02:41;38.95;;;19.27;;
32250;SDS011;41295;48.518;9.206;2023-01-23T10:04:45;33.97;;;17.60;;
32250;SDS011;41295;48.518;9.206;2023-01-23T10:06:57;38.15;;;18.50;;
32250;SDS011;41295;48.518;9.206;2023-01-23T10:09:26;39.08;;;19.30;;
32250;SDS011;41295;48.518;9.206;2023-01-23T10:11:43;38.17;;;19.17;;
32250;SDS011;41295;48.518;9.206;2023-01-23T10:14:01;32.72;;;16.98;;
32250;SDS011;41295;48.518;9.206;2023-01-23T10:16:20;38.75;;;17.52;;
32250;SDS011;41295;48.518;9.206;2023-01-23T10:18:52;34.08;;;17.33;;
32250;SDS011;41295;48.518;9.206;2023-01-23T10:21:08;36.80;;;17.75;;
32250;SDS011;41295;48.518;9.206;2023-01-23T10:23:25;32.38;;;16.42;;
32250;SDS011;41295;48.518;9.206;2023-01-23T10:25:37;34.38;;;16.90;;
32250;SDS011;41295;48.518;9.206;2023-01-23T10:27:42;34.20;;;16.63;;
32250;SDS011;41295;48.518;9.206;2023-01-23T10:29:48;35.50;;;18.30;;
32250;SDS011;41295;48.518;9.206;2023-01-23T10:31:54;32.97;;;17.58;;
32250;SDS011;41295;48.518;9.206;2023-01-23T10:34:01;32.67;;;16.27;;
32250;SDS011;41295;48.518;9.206;2023-01-23T10:36:16;35.28;;;16.85;;
32250;SDS011;41295;48.518;9.206;2023-01-23T10:38:26;33.80;;;16.63;;
32250;SDS011;41295;48.518;9.206;2023-01-23T10:40:36;33.75;;;16.45;;
32250;SDS011;41295;48.518;9.206;2023-01-23T10:43:00;31.08;;;15.85;;
32250;SDS011;41295;48.518;9.206;2023-01-23T10:45:03;29.30;;;15.00;;
32250;SDS011;41295;48.518;9.206;2023-01-23T10:47:13;32.90;;;15.93;;
32250;SDS011;41295;48.518;9.206;2023-01-23T10:49:25;29.48;;;15.57;;
32250;SDS011;41295;48.518;9.206;2023-01-23T10:51:32;27.80;;;14.82;;
32250;SDS011;41295;48.518;9.206;2023-01-23T10:53:37;26.95;;;13.82;;
32250;SDS011;41295;48.518;9.206;2023-01-23T10:55:42;27.17;;;15.07;;
32250;SDS011;41295;48.518;9.206;2023-01-23T10:57:47;27.33;;;15.05;;
32250;SDS011;41295;48.518;9.206;2023-01-23T10:59:53;26.80;;;14.27;;
32250;SDS011;41295;48.518;9.206;2023-01-23T11:01:59;24.90;;;12.98;;
32250;SDS011;41295;48.518;9.206;2023-01-23T11:04:10;28.58;;;14.48;;
32250;SDS011;41295;48.518;9.206;2023-01-23T11:06:21;27.30;;;13.73;;
32250;SDS011;41295;48.518;9.206;2023-01-23T11:08:26;29.38;;;13.40;;
32250;SDS011;41295;48.518;9.206;2023-01-23T11:10:32;23.73;;;12.77;;
32250;SDS011;41295;48.518;9.206;2023-01-23T11:12:45;26.98;;;14.25;;
32250;SDS011;41295;48.518;9.206;2023-01-23T11:14:49;29.40;;;13.32;;
32250;SDS011;41295;48.518;9.206;2023-01-23T11:16:58;26.85;;;14.07;;
32250;SDS011;41295;48.518;9.206;2023-01-23T11:19:03;27.90;;;14.00;;
32250;SDS011;41295;48.518;9.206;2023-01-23T11:21:19;26.23;;;13.97;;
32250;SDS011;41295;48.518;9.206;2023-01-23T11:23:22;27.38;;;14.10;;
32250;SDS011;41295;48.518;9.206;2023-01-23T11:25:26;30.55;;;15.90;;
32250;SDS011;41295;48.518;9.206;2023-01-23T11:27:31;24.30;;;13.80;;
32250;SDS011;41295;48.518;9.206;2023-01-23T11:29:41;24.95;;;13.07;;
32250;SDS011;41295;48.518;9.206;2023-01-23T11:31:59;30.38;;;14.43;;
32250;SDS011;41295;48.518;9.206;2023-01-23T11:34:09;28.98;;;15.15;;
32250;SDS011;41295;48.518;9.206;2023-01-23T11:36:23;29.35;;;14.80;;
32250;SDS011;41295;48.518;9.206;2023-01-23T11:38:40;25.83;;;14.45;;
32250;SDS011;41295;48.518;9.206;2023-01-23T11:40:53;29.67;;;15.00;;
32250;SDS011;41295;48.518;9.206;2023-01-23T11:42:57;30.80;;;15.85;;
32250;SDS011;41295;48.518;9.206;2023-01-23T11:44:59;29.92;;;15.07;;
32250;SDS011;41295;48.518;9.206;2023-01-23T11:49:48;28.10;;;14.52;;
32250;SDS011;41295;48.518;9.206;2023-01-23T11:52:04;26.65;;;15.00;;
32250;SDS011;41295;48.518;9.206;2023-01-23T11:54:34;32.22;;;15.63;;
32250;SDS011;41295;48.518;9.206;2023-01-23T11:56:53;31.05;;;16.10;;
32250;SDS011;41295;48.518;9.206;2023-01-23T11:59:17;30.42;;;15.00;;
32250;SDS011;41295;48.518;9.206;2023-01-23T12:01:29;32.42;;;15.80;;
32250;SDS011;41295;48.518;9.206;2023-01-23T12:06:20;30.88;;;15.45;;
32250;SDS011;41295;48.518;9.206;2023-01-23T12:08:36;30.83;;;15.48;;
32250;SDS011;41295;48.518;9.206;2023-01-23T12:10:47;32.33;;;16.50;;
32250;SDS011;41295;48.518;9.206;2023-01-23T12:13:05;29.67;;;15.40;;
32250;SDS011;41295;48.518;9.206;2023-01-23T12:15:21;33.70;;;16.40;;
32250;SDS011;41295;48.518;9.206;2023-01-23T12:17:35;33.10;;;16.20;;